Time;durP1;ratioP1;P1;durP2;ratioP2;P2;SDS_P1;SDS_P2;PMS_P1;PMS_P2;Temp;Humidity;BMP_temperature;BMP_pressure;BME280_temperature;BME280_humidity;BME280_pressure;Samples;Min_cycle;Max_cycle;Signal;HPM_P1;HPM_P2
2023/04/19 00:01:59;;;;;;;;;;;9.20;99.90;;;;;;5003535;28;19949;-91
2023/04/19 00:04:26;;;;;;;;;;;9.20;99.90;;;;;;4983741;28;19984;-91
2023/04/19 00:06:54;;;;;;;;;;;9.20;99.90;;;;;;5009293;28;19926;-92
2023/04/19 00:09:21;;;;;;;;;;;9.20;99.90;;;;;;4992471;28;20008;-92
2023/04/19 00:11:48;;;;;;;;;;;9.20;99.90;;;;;;4984806;28;20300;-91
2023/04/19 00:14:15;;;;;;;;;;;9.20;99.90;;;;;;5003706;28;20033;-92
2023/04/19 00:16:42;;;;;;;;;;;9.20;99.90;;;;;;4991703;28;19983;-92
2023/04/19 00:19:09;;;;;;;;;;;9.20;99.90;;;;;;5007836;28;19940;-90
2023/04/19 00:21:36;;;;;;;;;;;9.20;99.90;;;;;;4984016;28;19933;-92
2023/04/19 00:24:04;;;;;;;;;;;9.20;99.90;;;;;;5003707;28;19952;-90
2023/04/19 00:26:31;;;;;;;;;;;9.20;99.90;;;;;;4985068;28;20112;-90
2023/04/19 00:29:01;;;;;;;;;;;9.20;99.90;;;;;;4986819;28;19933;-91
2023/04/19 00:31:30;;;;;;;;;;;9.20;99.90;;;;;;4985909;28;19929;-90
2023/04/19 00:33:57;;;;;;;;;;;9.20;99.90;;;;;;4989683;28;19953;-91
2023/04/19 00:36:26;;;;;;;;;;;9.20;99.90;;;;;;4984690;28;19925;-92
2023/04/19 00:38:53;;;;;;;;;;;9.20;99.90;;;;;;4981498;28;19945;-90
2023/04/19 00:41:21;;;;;;;;;;;9.10;99.90;;;;;;4994557;28;19934;-92
2023/04/19 00:43:48;;;;;;;;;;;9.20;99.90;;;;;;5003899;28;20012;-93
2023/04/19 00:46:15;;;;;;;;;;;9.10;99.90;;;;;;5007965;28;19909;-92
2023/04/19 00:48:42;;;;;;;;;;;9.10;99.90;;;;;;4996376;28;20021;-91
2023/04/19 00:51:11;;;;;;;;;;;9.10;99.90;;;;;;4982358;28;19933;-92
2023/04/19 00:53:38;;;;;;;;;;;9.10;99.90;;;;;;4984801;28;19933;-91
2023/04/19 00:56:06;;;;;;;;;;;9.10;99.90;;;;;;4999339;28;19925;-89
2023/04/19 00:58:34;;;;;;;;;;;9.10;99.90;;;;;;4984834;28;20420;-92
2023/04/19 01:01:01;;;;;;;;;;;9.10;99.90;;;;;;4985805;28;19979;-91
2023/04/19 01:03:28;;;;;;;;;;;9.10;99.90;;;;;;5001613;28;19934;-92
2023/04/19 01:05:55;;;;;;;;;;;9.10;99.90;;;;;;4983158;28;19933;-92
2023/04/19 01:08:22;;;;;;;;;;;9.10;99.90;;;;;;4989376;28;20495;-91
2023/04/19 01:10:51;;;;;;;;;;;9.10;99.90;;;;;;4984788;28;19936;-89
2023/04/19 01:13:17;;;;;;;;;;;9.10;99.90;;;;;;4999011;28;20000;-90
2023/04/19 01:15:46;;;;;;;;;;;9.00;99.90;;;;;;4986298;28;19932;-90
2023/04/19 01:18:13;;;;;;;;;;;9.00;99.90;;;;;;4986608;28;20396;-91
2023/04/19 01:20:40;;;;;;;;;;;9.00;99.90;;;;;;5000475;28;19989;-90
2023/04/19 01:23:10;;;;;;;;;;;9.00;99.90;;;;;;4985359;28;19930;-91
2023/04/19 01:25:37;;;;;;;;;;;9.00;99.90;;;;;;4992509;28;20604;-90
2023/04/19 01:28:04;;;;;;;;;;;9.00;99.90;;;;;;4983848;28;19964;-90
2023/04/19 01:30:31;;;;;;;;;;;9.00;99.90;;;;;;4985118;28;19926;-91
2023/04/19 01:32:58;;;;;;;;;;;9.00;99.90;;;;;;4984079;28;19961;-89
2023/04/19 01:35:25;;;;;;;;;;;9.00;99.90;;;;;;4989247;28;19956;-91
2023/04/19 01:37:54;;;;;;;;;;;9.00;99.90;;;;;;4980823;28;20374;-91
2023/04/19 01:40:23;;;;;;;;;;;9.00;99.90;;;;;;4999671;28;20315;-89
2023/04/19 01:42:50;;;;;;;;;;;9.00;99.90;;;;;;4987348;28;19980;-89
2023/04/19 01:45:17;;;;;;;;;;;9.00;99.90;;;;;;4986060;28;19925;-90
2023/04/19 01:47:43;;;;;;;;;;;9.00;99.90;;;;;;4996511;28;19976;-91
2023/04/19 01:50:10;;;;;;;;;;;9.00;99.90;;;;;;4987590;28;20027;-89
2023/04/19 01:52:37;;;;;;;;;;;9.00;99.90;;;;;;4993726;28;19955;-90
2023/04/19 01:55:05;;;;;;;;;;;9.00;99.90;;;;;;4985777;28;20396;-90
2023/04/19 01:57:38;;;;;;;;;;;9.00;99.90;;;;;;4989705;28;19955;-92
2023/04/19 02:00:05;;;;;;;;;;;8.90;99.90;;;;;;5002002;28;20535;-89
2023/04/19 02:02:40;;;;;;;;;;;8.90;99.90;;;;;;5006847;28;19945;-90
2023/04/19 02:05:08;;;;;;;;;;;9.00;99.90;;;;;;4990574;28;20391;-91
2023/04/19 02:07:35;;;;;;;;;;;8.90;99.90;;;;;;4991257;28;20023;-90
2023/04/19 02:10:04;;;;;;;;;;;8.90;99.90;;;;;;4990245;28;20367;-90
2023/04/19 02:12:32;;;;;;;;;;;8.90;99.90;;;;;;4989985;28;19929;-89
2023/04/19 02:15:01;;;;;;;;;;;8.90;99.90;;;;;;4985542;28;19952;-90
2023/04/19 02:17:31;;;;;;;;;;;8.90;99.90;;;;;;5002266;28;19944;-91
2023/04/19 02:19:59;;;;;;;;;;;8.90;99.90;;;;;;4984819;28;20249;-91
2023/04/19 02:22:27;;;;;;;;;;;8.90;99.90;;;;;;4988074;28;19929;-92
2023/04/19 02:24:54;;;;;;;;;;;8.90;99.90;;;;;;4993548;28;20342;-89
2023/04/19 02:27:27;;;;;;;;;;;8.90;99.90;;;;;;4993191;28;20012;-90
2023/04/19 02:29:55;;;;;;;;;;;8.90;99.90;;;;;;4988371;28;20177;-91
2023/04/19 02:32:23;;;;;;;;;;;8.90;99.90;;;;;;4986013;28;20797;-90
2023/04/19 02:34:50;;;;;;;;;;;8.90;99.90;;;;;;4989219;28;20439;-90
2023/04/19 02:37:17;;;;;;;;;;;8.90;99.90;;;;;;4987670;28;19925;-90
2023/04/19 02:39:44;;;;;;;;;;;8.90;99.90;;;;;;4985772;28;19982;-91
2023/04/19 02:42:11;;;;;;;;;;;8.80;99.90;;;;;;5006593;28;20306;-90
2023/04/19 02:44:38;;;;;;;;;;;8.90;99.90;;;;;;4985853;28;20020;-92
2023/04/19 02:47:05;;;;;;;;;;;8.80;99.90;;;;;;5000399;28;19955;-92
2023/04/19 02:49:35;;;;;;;;;;;8.80;99.90;;;;;;4989065;28;19941;-90
2023/04/19 02:52:03;;;;;;;;;;;8.80;99.90;;;;;;4987710;28;19925;-91
2023/04/19 02:54:32;;;;;;;;;;;8.80;99.90;;;;;;4984402;28;19968;-91
2023/04/19 02:56:58;;;;;;;;;;;8.80;99.90;;;;;;4984365;28;19973;-90
2023/04/19 02:59:25;;;;;;;;;;;8.80;99.90;;;;;;4991389;28;19933;-91
2023/04/19 03:01:52;;;;;;;;;;;8.80;99.90;;;;;;4988564;28;19933;-89
2023/04/19 03:04:20;;;;;;;;;;;8.80;99.90;;;;;;4983847;28;20020;-90
2023/04/19 03:06:49;;;;;;;;;;;8.80;99.90;;;;;;4982826;28;19936;-90
2023/04/19 03:09:16;;;;;;;;;;;8.80;99.90;;;;;;4983543;28;19934;-92
2023/04/19 03:11:42;;;;;;;;;;;8.80;99.90;;;;;;4987184;28;19929;-88
2023/04/19 03:14:09;;;;;;;;;;;8.80;99.90;;;;;;4983050;28;19999;-92
2023/04/19 03:16:38;;;;;;;;;;;8.80;99.90;;;;;;4984783;28;19968;-91
2023/04/19 03:19:05;;;;;;;;;;;8.80;99.90;;;;;;4985126;28;20274;-90
2023/04/19 03:21:38;;;;;;;;;;;8.80;99.90;;;;;;4990320;28;19940;-91
2023/04/19 03:24:07;;;;;;;;;;;8.80;99.90;;;;;;4980213;28;19957;-90
2023/04/19 03:26:36;;;;;;;;;;;8.80;99.90;;;;;;4988821;28;19990;-92
2023/04/19 03:29:04;;;;;;;;;;;8.80;99.90;;;;;;4986235;28;19941;-90
2023/04/19 03:31:44;;;;;;;;;;;8.80;99.90;;;;;;5000953;28;19983;-91
2023/04/19 03:34:12;;;;;;;;;;;8.80;99.90;;;;;;4981814;28;20359;-91
2023/04/19 03:36:43;;;;;;;;;;;8.70;99.90;;;;;;4989586;28;19932;-90
2023/04/19 03:39:12;;;;;;;;;;;8.70;99.90;;;;;;5001627;28;20012;-90
2023/04/19 03:41:41;;;;;;;;;;;8.70;99.90;;;;;;4989714;28;19925;-89
2023/04/19 03:44:18;;;;;;;;;;;8.70;99.90;;;;;;4996895;28;19941;-91
2023/04/19 03:46:47;;;;;;;;;;;8.70;99.90;;;;;;4982160;28;19933;-92
2023/04/19 03:49:16;;;;;;;;;;;8.70;99.90;;;;;;4989109;28;20326;-92
2023/04/19 03:51:47;;;;;;;;;;;8.70;99.90;;;;;;4987519;28;19979;-90
2023/04/19 03:54:18;;;;;;;;;;;8.70;99.90;;;;;;4985472;28;19934;-90
2023/04/19 03:56:45;;;;;;;;;;;8.70;99.90;;;;;;4991550;28;20415;-92
2023/04/19 03:59:13;;;;;;;;;;;8.70;99.90;;;;;;4984791;28;19984;-91
2023/04/19 04:01:40;;;;;;;;;;;8.70;99.90;;;;;;4982955;28;20288;-90
2023/04/19 04:04:08;;;;;;;;;;;8.70;99.90;;;;;;4984533;28;20033;-94
2023/04/19 04:06:35;;;;;;;;;;;8.70;99.90;;;;;;5001851;28;19973;-90
2023/04/19 04:09:02;;;;;;;;;;;8.70;99.90;;;;;;4983144;28;19968;-90
2023/04/19 04:11:31;;;;;;;;;;;8.70;99.90;;;;;;4988335;28;19925;-90
2023/04/19 04:13:58;;;;;;;;;;;8.70;99.90;;;;;;4981909;28;19926;-92
2023/04/19 04:16:28;;;;;;;;;;;8.70;99.90;;;;;;4986903;28;19929;-91
2023/04/19 04:18:56;;;;;;;;;;;8.70;99.90;;;;;;5011120;28;19914;-93
2023/04/19 04:21:26;;;;;;;;;;;8.60;99.90;;;;;;5015215;28;19913;-94
2023/04/19 04:23:53;;;;;;;;;;;8.60;99.90;;;;;;4991528;28;19930;-91
2023/04/19 04:26:34;;;;;;;;;;;8.60;99.90;;;;;;4990722;28;19937;-92
2023/04/19 04:29:17;;;;;;;;;;;8.60;99.90;;;;;;4988087;28;20023;-93
2023/04/19 04:31:45;;;;;;;;;;;8.60;99.90;;;;;;4983681;28;20147;-91
2023/04/19 04:34:14;;;;;;;;;;;8.60;99.90;;;;;;4982433;28;20028;-92
2023/04/19 04:36:49;;;;;;;;;;;8.60;99.90;;;;;;4983077;28;19940;-91
2023/04/19 04:39:18;;;;;;;;;;;8.60;99.90;;;;;;4984115;28;19933;-89
2023/04/19 04:41:48;;;;;;;;;;;8.60;99.90;;;;;;5005671;28;19940;-90
2023/04/19 04:44:15;;;;;;;;;;;8.60;99.90;;;;;;5006393;28;19925;-91
2023/04/19 04:46:44;;;;;;;;;;;8.60;99.90;;;;;;5003818;28;20028;-90
2023/04/19 04:49:14;;;;;;;;;;;8.60;99.90;;;;;;4985393;28;19933;-91
2023/04/19 04:51:42;;;;;;;;;;;8.60;99.90;;;;;;4988293;28;20281;-90
2023/04/19 04:54:09;;;;;;;;;;;8.60;99.90;;;;;;4982442;28;19937;-88
2023/04/19 04:56:37;;;;;;;;;;;8.60;99.90;;;;;;4989567;28;20410;-91
2023/04/19 04:59:06;;;;;;;;;;;8.60;99.90;;;;;;4989916;28;20299;-89
2023/04/19 05:01:39;;;;;;;;;;;8.60;99.90;;;;;;5005617;28;19925;-90
2023/04/19 05:04:07;;;;;;;;;;;8.60;99.90;;;;;;4987468;28;19992;-89
2023/04/19 05:06:35;;;;;;;;;;;8.60;99.90;;;;;;5003475;28;19925;-90
2023/04/19 05:09:02;;;;;;;;;;;8.60;99.90;;;;;;4987556;28;19977;-83
2023/04/19 05:11:34;;;;;;;;;;;8.60;99.90;;;;;;4985442;28;19988;-89
2023/04/19 05:14:01;;;;;;;;;;;8.50;99.90;;;;;;4990620;28;20363;-91
2023/04/19 05:16:32;;;;;;;;;;;8.50;99.90;;;;;;4992404;28;20400;-92
2023/04/19 05:18:59;;;;;;;;;;;8.50;99.90;;;;;;4987592;28;21360;-90
2023/04/19 05:21:29;;;;;;;;;;;8.60;99.90;;;;;;4994015;28;19952;-91
2023/04/19 05:23:56;;;;;;;;;;;8.50;99.90;;;;;;4983210;28;19933;-90
2023/04/19 05:26:23;;;;;;;;;;;8.60;99.90;;;;;;4986513;28;20030;-89
2023/04/19 05:28:51;;;;;;;;;;;8.50;99.90;;;;;;4989420;28;20008;-90
2023/04/19 05:31:23;;;;;;;;;;;8.50;99.90;;;;;;4995534;28;19936;-89
2023/04/19 05:34:14;;;;;;;;;;;8.50;99.90;;;;;;4993712;28;19936;-91
2023/04/19 05:36:43;;;;;;;;;;;8.50;99.90;;;;;;5002440;28;19930;-90
2023/04/19 05:39:10;;;;;;;;;;;8.50;99.90;;;;;;4994776;28;19929;-90
2023/04/19 05:41:37;;;;;;;;;;;8.50;99.90;;;;;;4993696;28;19934;-91
2023/04/19 05:44:04;;;;;;;;;;;8.50;99.90;;;;;;5000658;28;20346;-88
2023/04/19 05:46:31;;;;;;;;;;;8.50;99.90;;;;;;4994840;28;20004;-91
2023/04/19 05:49:00;;;;;;;;;;;8.50;99.90;;;;;;5003536;28;19988;-89
2023/04/19 05:51:29;;;;;;;;;;;8.50;99.90;;;;;;5007769;28;20294;-89
2023/04/19 05:54:05;;;;;;;;;;;8.50;99.90;;;;;;4994778;28;19926;-89
2023/04/19 05:56:31;;;;;;;;;;;8.50;99.90;;;;;;4991705;28;19925;-89
2023/04/19 05:58:59;;;;;;;;;;;8.50;99.90;;;;;;5000055;28;19925;-89
2023/04/19 06:01:26;;;;;;;;;;;8.50;99.90;;;;;;4996499;28;19932;-91
2023/04/19 06:03:53;;;;;;;;;;;8.50;99.90;;;;;;4993293;28;19944;-88
2023/04/19 06:06:21;;;;;;;;;;;8.50;99.90;;;;;;4990571;28;20356;-89
2023/04/19 06:08:49;;;;;;;;;;;8.50;99.90;;;;;;4991483;28;20395;-89
2023/04/19 06:11:16;;;;;;;;;;;8.50;99.90;;;;;;4997787;28;20870;-91
2023/04/19 06:13:43;;;;;;;;;;;8.50;99.90;;;;;;4989868;28;20449;-89
2023/04/19 06:16:10;;;;;;;;;;;8.50;99.90;;;;;;4996021;28;19925;-90
2023/04/19 06:18:42;;;;;;;;;;;8.40;99.90;;;;;;4995637;28;19926;-89
2023/04/19 06:21:08;;;;;;;;;;;8.40;99.90;;;;;;5001671;28;19996;-90
2023/04/19 06:23:35;;;;;;;;;;;8.40;99.90;;;;;;5011867;28;19929;-88
2023/04/19 06:26:03;;;;;;;;;;;8.40;99.90;;;;;;5004178;28;20793;-89
2023/04/19 06:28:30;;;;;;;;;;;8.40;99.90;;;;;;5011125;28;20024;-89
2023/04/19 06:30:57;;;;;;;;;;;8.50;99.90;;;;;;4991074;28;19965;-79
2023/04/19 06:33:24;;;;;;;;;;;8.40;99.90;;;;;;5008811;28;19965;-90
2023/04/19 06:35:51;;;;;;;;;;;8.40;99.90;;;;;;5010233;28;19951;-90
2023/04/19 06:38:18;;;;;;;;;;;8.40;99.90;;;;;;4985418;28;19961;-91
2023/04/19 06:40:45;;;;;;;;;;;8.40;99.90;;;;;;5012441;28;20165;-90
2023/04/19 06:43:13;;;;;;;;;;;8.40;99.90;;;;;;4993964;28;19929;-91
2023/04/19 06:45:40;;;;;;;;;;;8.40;99.90;;;;;;5007718;28;19926;-91
2023/04/19 06:48:07;;;;;;;;;;;8.40;99.90;;;;;;4993134;28;19933;-91
2023/04/19 06:50:33;;;;;;;;;;;8.40;99.90;;;;;;4992807;28;19965;-92
2023/04/19 06:53:00;;;;;;;;;;;8.40;99.90;;;;;;4994864;28;20214;-92
2023/04/19 06:55:27;;;;;;;;;;;8.50;99.90;;;;;;4993667;28;19961;-91
2023/04/19 06:57:54;;;;;;;;;;;8.40;99.90;;;;;;4978833;28;20081;-90
2023/04/19 07:00:22;;;;;;;;;;;8.40;99.90;;;;;;5010499;28;19932;-91
2023/04/19 07:02:49;;;;;;;;;;;8.40;99.90;;;;;;5010911;28;19941;-91
2023/04/19 07:05:16;;;;;;;;;;;8.40;99.90;;;;;;4989625;28;19926;-90
2023/04/19 07:07:43;;;;;;;;;;;8.40;99.90;;;;;;4984960;28;20365;-91
2023/04/19 07:10:11;;;;;;;;;;;8.40;99.90;;;;;;5015213;28;19925;-91
2023/04/19 07:12:38;;;;;;;;;;;8.40;99.90;;;;;;4991525;28;19926;-91
2023/04/19 07:15:06;;;;;;;;;;;8.40;99.90;;;;;;4987753;28;20028;-92
2023/04/19 07:17:36;;;;;;;;;;;8.40;99.90;;;;;;4991252;28;20166;-91
2023/04/19 07:20:04;;;;;;;;;;;8.40;99.90;;;;;;5014776;28;19925;-92
2023/04/19 07:22:31;;;;;;;;;;;8.40;99.90;;;;;;4997759;28;20007;-92
2023/04/19 07:24:58;;;;;;;;;;;8.40;99.90;;;;;;5002809;28;20023;-90
2023/04/19 07:27:25;;;;;;;;;;;8.40;99.90;;;;;;4989511;28;19937;-91
2023/04/19 07:29:52;;;;;;;;;;;8.40;99.90;;;;;;4992333;28;19929;-91
2023/04/19 07:32:19;;;;;;;;;;;8.40;99.90;;;;;;4988668;28;20455;-91
2023/04/19 07:34:47;;;;;;;;;;;8.40;99.90;;;;;;4991920;28;20020;-91
2023/04/19 07:37:14;;;;;;;;;;;8.40;99.90;;;;;;5009096;28;19939;-91
2023/04/19 07:39:41;;;;;;;;;;;8.40;99.90;;;;;;5005573;28;20016;-90
2023/04/19 07:42:08;;;;;;;;;;;8.40;99.90;;;;;;4987119;28;20320;-91
2023/04/19 07:44:37;;;;;;;;;;;8.40;99.90;;;;;;5014517;28;19926;-91
2023/04/19 07:47:03;;;;;;;;;;;8.40;99.90;;;;;;4990751;28;19984;-91
2023/04/19 07:49:33;;;;;;;;;;;8.40;99.90;;;;;;4988009;28;20198;-91
2023/04/19 07:52:01;;;;;;;;;;;8.40;99.90;;;;;;5019791;28;19939;-93
2023/04/19 07:54:29;;;;;;;;;;;8.40;99.90;;;;;;5029964;28;19913;-93
2023/04/19 07:56:56;;;;;;;;;;;8.40;99.90;;;;;;5016687;28;19967;-91
2023/04/19 07:59:23;;;;;;;;;;;8.40;99.90;;;;;;5007690;28;19926;-91
2023/04/19 08:01:50;;;;;;;;;;;8.40;99.90;;;;;;5011246;28;19926;-91
2023/04/19 08:04:18;;;;;;;;;;;8.40;99.90;;;;;;5007110;28;19926;-91
2023/04/19 08:06:48;;;;;;;;;;;8.40;99.90;;;;;;5007444;28;19957;-92
2023/04/19 08:09:16;;;;;;;;;;;8.40;99.90;;;;;;5010137;28;19992;-91
2023/04/19 08:11:44;;;;;;;;;;;8.40;99.90;;;;;;5011491;28;19933;-92
2023/04/19 08:14:11;;;;;;;;;;;8.40;99.90;;;;;;5011505;28;19999;-91
2023/04/19 08:16:38;;;;;;;;;;;8.40;99.90;;;;;;4979215;28;20024;-91
2023/04/19 08:19:05;;;;;;;;;;;8.40;99.90;;;;;;5011378;28;20019;-91
2023/04/19 08:21:32;;;;;;;;;;;8.40;99.90;;;;;;5009095;28;19933;-91
2023/04/19 08:23:58;;;;;;;;;;;8.40;99.90;;;;;;5004224;28;19934;-91
2023/04/19 08:26:27;;;;;;;;;;;8.40;99.90;;;;;;5005523;28;20020;-91
2023/04/19 08:28:53;;;;;;;;;;;8.40;99.90;;;;;;4992968;28;20412;-91
2023/04/19 08:31:20;;;;;;;;;;;8.40;99.90;;;;;;5010877;28;19926;-91
2023/04/19 08:33:47;;;;;;;;;;;8.40;99.90;;;;;;4977256;28;19926;-92
2023/04/19 08:36:15;;;;;;;;;;;8.40;99.90;;;;;;4993412;28;19925;-91
2023/04/19 08:38:42;;;;;;;;;;;8.40;99.90;;;;;;5018990;28;20343;-92
2023/04/19 08:41:11;;;;;;;;;;;8.50;99.90;;;;;;5001668;28;19933;-91
2023/04/19 08:43:41;;;;;;;;;;;8.50;99.90;;;;;;5006633;28;20411;-90
2023/04/19 08:46:08;;;;;;;;;;;8.50;99.90;;;;;;5011519;28;19995;-90
2023/04/19 08:48:36;;;;;;;;;;;8.50;99.90;;;;;;4992576;28;19925;-91
2023/04/19 08:51:03;;;;;;;;;;;8.50;99.90;;;;;;4984719;28;19997;-92
2023/04/19 08:53:30;;;;;;;;;;;8.50;99.90;;;;;;4979984;28;19929;-90
2023/04/19 08:55:58;;;;;;;;;;;8.50;99.90;;;;;;4997591;28;19925;-90
2023/04/19 08:58:25;;;;;;;;;;;8.50;99.90;;;;;;4991594;28;19937;-90
2023/04/19 09:00:53;;;;;;;;;;;8.50;99.90;;;;;;5001280;28;19972;-90
2023/04/19 09:03:20;;;;;;;;;;;8.50;99.90;;;;;;4994243;28;20348;-90
2023/04/19 09:05:47;;;;;;;;;;;8.50;99.90;;;;;;5008808;28;19925;-92
2023/04/19 09:08:21;;;;;;;;;;;8.50;99.90;;;;;;4993888;28;19949;-91
2023/04/19 09:10:53;;;;;;;;;;;8.60;99.90;;;;;;4981867;28;19964;-91
2023/04/19 09:13:20;;;;;;;;;;;8.60;99.90;;;;;;5007139;28;19932;-91
2023/04/19 09:15:46;;;;;;;;;;;8.60;99.90;;;;;;4985425;28;19932;-89
2023/04/19 09:18:15;;;;;;;;;;;8.60;99.90;;;;;;5006646;28;20004;-91
2023/04/19 09:20:42;;;;;;;;;;;8.60;99.90;;;;;;4987982;28;19933;-92
2023/04/19 09:23:11;;;;;;;;;;;8.60;99.90;;;;;;4998453;28;19926;-92
2023/04/19 09:25:38;;;;;;;;;;;8.60;99.90;;;;;;5002880;28;20052;-92
2023/04/19 09:28:08;;;;;;;;;;;8.70;99.90;;;;;;5000119;28;19953;-91
2023/04/19 09:30:35;;;;;;;;;;;8.70;99.90;;;;;;4987330;28;19938;-91
2023/04/19 09:33:02;;;;;;;;;;;8.70;99.90;;;;;;5002288;28;20310;-91
2023/04/19 09:35:41;;;;;;;;;;;8.70;99.90;;;;;;5009900;28;20244;-91
2023/04/19 09:38:08;;;;;;;;;;;8.70;99.90;;;;;;4996318;28;20010;-91
2023/04/19 09:40:35;;;;;;;;;;;8.70;99.90;;;;;;4990625;28;19925;-91
2023/04/19 09:43:02;;;;;;;;;;;8.70;99.90;;;;;;4991663;28;20344;-91
2023/04/19 09:45:39;;;;;;;;;;;8.70;99.90;;;;;;5012598;28;19925;-92
2023/04/19 09:48:07;;;;;;;;;;;8.80;99.90;;;;;;4986811;28;19957;-91
2023/04/19 09:50:34;;;;;;;;;;;8.80;99.90;;;;;;5004119;28;19929;-92
2023/04/19 09:53:03;;;;;;;;;;;8.80;99.90;;;;;;4992673;28;19957;-91
2023/04/19 09:55:31;;;;;;;;;;;8.80;99.90;;;;;;5001894;28;19972;-92
2023/04/19 09:57:57;;;;;;;;;;;8.90;99.90;;;;;;4993558;28;19926;-91
2023/04/19 10:00:28;;;;;;;;;;;8.80;99.90;;;;;;4987841;28;19925;-93
2023/04/19 10:02:57;;;;;;;;;;;8.90;99.90;;;;;;4993136;28;19976;-91
2023/04/19 10:05:24;;;;;;;;;;;8.90;99.90;;;;;;4990617;28;19934;-91
2023/04/19 10:07:52;;;;;;;;;;;8.90;99.90;;;;;;5009287;28;20396;-92
2023/04/19 10:10:21;;;;;;;;;;;9.00;99.90;;;;;;4997465;28;19933;-91
2023/04/19 10:12:49;;;;;;;;;;;9.00;99.90;;;;;;4997050;28;19926;-91
2023/04/19 10:15:16;;;;;;;;;;;9.00;99.90;;;;;;4987123;28;19925;-92
2023/04/19 10:17:43;;;;;;;;;;;9.00;99.90;;;;;;4994223;28;19934;-90
2023/04/19 10:20:13;;;;;;;;;;;9.00;99.90;;;;;;5012553;28;19933;-91
2023/04/19 10:22:40;;;;;;;;;;;9.10;99.90;;;;;;5008116;28;19933;-91
2023/04/19 10:25:08;;;;;;;;;;;9.10;99.90;;;;;;5011325;28;19984;-91
2023/04/19 10:27:36;;;;;;;;;;;9.10;99.90;;;;;;4987983;28;20359;-91
2023/04/19 10:30:06;;;;;;;;;;;9.10;99.90;;;;;;4994592;28;19926;-91
2023/04/19 10:32:37;;;;;;;;;;;9.20;99.90;;;;;;4992966;28;19967;-91
2023/04/19 10:35:07;;;;;;;;;;;9.20;99.90;;;;;;4991048;28;19976;-90
2023/04/19 10:37:34;;;;;;;;;;;9.20;99.90;;;;;;5009899;28;19948;-91
2023/04/19 10:40:01;;;;;;;;;;;9.20;99.90;;;;;;4987752;28;20019;-91
2023/04/19 10:42:43;;;;;;;;;;;9.20;99.90;;;;;;4999048;28;19925;-91
2023/04/19 10:45:28;;;;;;;;;;;9.20;99.90;;;;;;4986096;28;19938;-86
2023/04/19 10:47:57;;;;;;;;;;;9.30;99.90;;;;;;5001146;28;20028;-92
2023/04/19 10:50:24;;;;;;;;;;;9.30;99.90;;;;;;5006558;28;19929;-92
2023/04/19 10:52:51;;;;;;;;;;;9.30;99.90;;;;;;5006979;28;19926;-92
2023/04/19 10:55:18;;;;;;;;;;;9.30;99.90;;;;;;5009165;28;19995;-91
2023/04/19 10:58:05;;;;;;;;;;;9.30;99.90;;;;;;5018084;28;19948;-91
2023/04/19 11:00:32;;;;;;;;;;;9.40;99.90;;;;;;4992767;28;19989;-91
2023/04/19 11:03:00;;;;;;;;;;;9.40;99.90;;;;;;5004783;28;19969;-91
2023/04/19 11:05:28;;;;;;;;;;;9.40;99.90;;;;;;5010585;28;19930;-91
2023/04/19 11:07:56;;;;;;;;;;;9.40;99.90;;;;;;5006208;28;19937;-91
2023/04/19 11:10:30;;;;;;;;;;;9.40;99.90;;;;;;5013341;28;20024;-91
2023/04/19 11:12:58;;;;;;;;;;;9.50;99.90;;;;;;4996546;28;20482;-90
2023/04/19 11:15:25;;;;;;;;;;;9.50;99.90;;;;;;4994429;28;19929;-92
2023/04/19 11:17:52;;;;;;;;;;;9.50;99.90;;;;;;5011373;28;20359;-91
2023/04/19 11:20:23;;;;;;;;;;;9.50;99.90;;;;;;4991981;28;19929;-92
2023/04/19 11:22:50;;;;;;;;;;;9.50;99.90;;;;;;4995484;28;19925;-92
2023/04/19 11:25:18;;;;;;;;;;;9.50;99.90;;;;;;5014585;28;19914;-92
2023/04/19 11:27:45;;;;;;;;;;;9.60;99.90;;;;;;5039939;28;19976;-93
2023/04/19 11:30:13;;;;;;;;;;;9.60;99.90;;;;;;5012459;28;19976;-91
2023/04/19 11:32:47;;;;;;;;;;;9.60;99.90;;;;;;4989241;28;19969;-92
2023/04/19 11:35:18;;;;;;;;;;;9.60;99.90;;;;;;5002244;28;20434;-91
2023/04/19 11:37:46;;;;;;;;;;;9.60;99.90;;;;;;5010181;28;19932;-92
2023/04/19 11:40:15;;;;;;;;;;;9.60;99.90;;;;;;4991468;28;19929;-93
2023/04/19 11:42:42;;;;;;;;;;;9.60;99.90;;;;;;5016801;28;19952;-90
2023/04/19 11:45:09;;;;;;;;;;;9.60;99.90;;;;;;4994550;28;20012;-94
2023/04/19 11:47:46;;;;;;;;;;;9.60;99.90;;;;;;5012388;28;19932;-91
2023/04/19 11:50:36;;;;;;;;;;;9.60;99.90;;;;;;5215101;22;19935;-79
2023/04/19 11:53:11;;;;;;;;;;;9.60;99.90;;;;;;5013322;28;19936;-78
2023/04/19 11:55:38;;;;;;;;;;;9.70;99.90;;;;;;5021960;28;20355;-78
2023/04/19 11:58:08;;;;;;;;;;;9.70;99.90;;;;;;5040099;28;19985;-79
2023/04/19 12:00:35;;;;;;;;;;;9.70;99.90;;;;;;5056403;28;19989;-78
2023/04/19 12:03:02;;;;;;;;;;;9.70;99.90;;;;;;5025945;28;19983;-77
2023/04/19 12:05:30;;;;;;;;;;;9.70;99.90;;;;;;5022213;28;19929;-77
2023/04/19 12:08:03;;;;;;;;;;;9.70;99.90;;;;;;5014232;28;19925;-77
2023/04/19 12:10:32;;;;;;;;;;;9.70;99.90;;;;;;5008720;28;19972;-77
2023/04/19 12:12:59;;;;;;;;;;;9.70;99.90;;;;;;5023133;28;19953;-78
2023/04/19 12:15:40;;;;;;;;;;;9.70;99.90;;;;;;5028530;28;19933;-77
2023/04/19 12:18:07;;;;;;;;;;;9.70;99.90;;;;;;5031777;28;19972;-76
2023/04/19 12:20:35;;;;;;;;;;;9.70;99.90;;;;;;5027642;28;20342;-77
2023/04/19 12:23:02;;;;;;;;;;;9.70;99.90;;;;;;5020969;28;20356;-78
2023/04/19 12:25:30;;;;;;;;;;;9.70;99.90;;;;;;5026433;28;19925;-77
2023/04/19 12:27:58;;;;;;;;;;;9.70;99.90;;;;;;5016431;28;19953;-77
2023/04/19 12:30:25;;;;;;;;;;;9.70;99.90;;;;;;5028840;28;20435;-78
2023/04/19 12:32:54;;;;;;;;;;;9.70;99.90;;;;;;5028629;28;20351;-77
2023/04/19 12:35:21;;;;;;;;;;;9.70;99.90;;;;;;5029884;28;19964;-78
2023/04/19 12:37:48;;;;;;;;;;;9.70;99.90;;;;;;5010704;28;20016;-77
2023/04/19 12:40:15;;;;;;;;;;;9.70;99.90;;;;;;5024645;28;19925;-79
2023/04/19 12:42:42;;;;;;;;;;;9.70;99.90;;;;;;5024815;28;19956;-78
2023/04/19 12:45:11;;;;;;;;;;;9.70;99.90;;;;;;5017621;28;19991;-79
2023/04/19 12:47:38;;;;;;;;;;;9.70;99.90;;;;;;5036884;28;19928;-79
2023/04/19 12:50:05;;;;;;;;;;;9.70;99.90;;;;;;5011651;28;19925;-78
2023/04/19 12:52:32;;;;;;;;;;;9.70;99.90;;;;;;5028650;28;19929;-79
2023/04/19 12:54:59;;;;;;;;;;;9.70;99.90;;;;;;5014981;28;19929;-78
2023/04/19 12:57:26;;;;;;;;;;;9.70;99.90;;;;;;5018794;28;19925;-78
2023/04/19 12:59:53;;;;;;;;;;;9.70;99.90;;;;;;5011185;28;19925;-78
2023/04/19 13:02:21;;;;;;;;;;;9.70;99.90;;;;;;5014514;28;19925;-79
2023/04/19 13:04:48;;;;;;;;;;;9.70;99.90;;;;;;5020655;28;19925;-79
2023/04/19 13:07:15;;;;;;;;;;;9.70;99.90;;;;;;5014053;28;19954;-78
2023/04/19 13:09:42;;;;;;;;;;;9.70;99.90;;;;;;5036519;28;19925;-79
2023/04/19 13:12:08;;;;;;;;;;;9.70;99.90;;;;;;5035499;28;19936;-79
2023/04/19 13:14:35;;;;;;;;;;;9.70;99.90;;;;;;5022258;28;19957;-79
2023/04/19 13:17:02;;;;;;;;;;;9.70;99.90;;;;;;5031633;28;19925;-78
2023/04/19 13:19:30;;;;;;;;;;;9.70;99.90;;;;;;5036475;28;19987;-78
2023/04/19 13:21:57;;;;;;;;;;;9.70;99.90;;;;;;5034861;28;20048;-78
2023/04/19 13:24:24;;;;;;;;;;;9.70;99.90;;;;;;5024080;28;19926;-79
2023/04/19 13:26:51;;;;;;;;;;;9.70;99.90;;;;;;5030857;28;19952;-78
2023/04/19 13:32:40;;;;;;;;;;;9.70;99.90;;;;;;5210544;22;20405;-78
2023/04/19 13:35:09;;;;;;;;;;;9.70;99.90;;;;;;5047708;28;19932;-78
2023/04/19 13:37:39;;;;;;;;;;;9.70;99.90;;;;;;5030363;28;19971;-78
2023/04/19 13:40:07;;;;;;;;;;;9.70;99.90;;;;;;5019042;28;19925;-78
2023/04/19 13:42:34;;;;;;;;;;;9.70;99.90;;;;;;5001077;28;20445;-79
2023/04/19 13:45:01;;;;;;;;;;;9.70;99.90;;;;;;5032082;28;19961;-78
2023/04/19 13:47:28;;;;;;;;;;;9.70;99.90;;;;;;5010394;28;19925;-77
2023/04/19 13:49:55;;;;;;;;;;;9.70;99.90;;;;;;5012780;28;19934;-78
2023/04/19 13:52:24;;;;;;;;;;;9.70;99.90;;;;;;5002435;28;20281;-77
2023/04/19 13:54:51;;;;;;;;;;;9.60;99.90;;;;;;5007674;28;19929;-77
2023/04/19 13:57:19;;;;;;;;;;;9.70;99.90;;;;;;5005631;28;19925;-77
2023/04/19 13:59:45;;;;;;;;;;;9.60;99.90;;;;;;5018696;28;19932;-78
2023/04/19 14:02:13;;;;;;;;;;;9.60;99.90;;;;;;5023724;28;20292;-77
2023/04/19 14:04:40;;;;;;;;;;;9.60;99.90;;;;;;5033139;28;19933;-77
2023/04/19 14:07:07;;;;;;;;;;;9.60;99.90;;;;;;5028845;28;19925;-77
2023/04/19 14:09:38;;;;;;;;;;;9.60;99.90;;;;;;5007528;28;19925;-78
2023/04/19 14:12:07;;;;;;;;;;;9.60;99.90;;;;;;5028109;28;20415;-78
2023/04/19 14:14:34;;;;;;;;;;;9.60;99.90;;;;;;5018554;28;20007;-78
2023/04/19 14:17:02;;;;;;;;;;;9.60;99.90;;;;;;5026181;28;19933;-79
2023/04/19 14:19:33;;;;;;;;;;;9.60;99.90;;;;;;5047663;28;19935;-78
2023/04/19 14:22:00;;;;;;;;;;;9.50;99.90;;;;;;5024458;28;19933;-77
2023/04/19 14:24:27;;;;;;;;;;;9.50;99.90;;;;;;5021436;28;19926;-76
2023/04/19 14:26:57;;;;;;;;;;;9.50;99.90;;;;;;5011590;28;20273;-77
2023/04/19 14:29:25;;;;;;;;;;;9.50;99.90;;;;;;5022679;28;19936;-77
2023/04/19 14:31:53;;;;;;;;;;;9.50;99.90;;;;;;5027906;28;19925;-77
2023/04/19 14:34:20;;;;;;;;;;;9.50;99.90;;;;;;5031419;28;19941;-77
2023/04/19 14:36:47;;;;;;;;;;;9.50;99.90;;;;;;5028294;28;20298;-77
2023/04/19 14:39:14;;;;;;;;;;;9.50;99.90;;;;;;5025883;28;19933;-78
2023/04/19 14:41:41;;;;;;;;;;;9.50;99.90;;;;;;5029385;28;20038;-80